Portada
METAR-TAF:

METAR-TAF

Aeropuertos :

Aeropuerto de Eastmain River

Eastmain, Quebec, Canadá

latitud: 52-14N, longitud: 078-31W, altitud: 7 m

Observación

El informe se hizo hace 42 minutos, a las 20:00 UTC
Viento 6 kt del sureste, variando entre este-sureste y sur
Temperatura 0°C
Humedad 86%
Presión 1002 hPa
Visibilidad: 16.1 km
Nubes dispersas a una altura de 1300 ft
Cielo nuboso a una altura de 3500 ft
Cielo cubierto a una altura de 6500 ft
poca nieve

METAR: CZEM 162000Z 13006KT 110V180 10SM -SN SCT013 BKN035 OVC065 00/M02 A2960 RMK SC3SC3SC2 LAST STFD OBS/NEXT 171300 UTC SLP025

Hora: 16:42 (20:42 UTC)


TAF: falta

Observaciones y pronósticos meteorológicos de más de 4000 aeropuertos (mensajes METAR y TAF).

Los puntos amarillos y rojos representan las estaciones disponibles.

Ponga el ratón en el punto deseado para ver el nombre de la estación.

Haga clic para ver las observaciones y los pronósticos meteorológicos.

Para cambiar el mapa : haga clic en los botones verdes con una cruz de color negro para hacer un zoom, en el botón verde con un guión para alejar o en las flechas verdes para mapas adyacentes.


METAR-TAF: